Terminal Aerodrome Forecast
Issued by NWS Pueblo, CO

Home | Current Version | Previous Version | Text Only | Print | Product List | Glossary On
Versions: 1 2 3 4 5 6 7 8 9 10 11 12 13 14 15 16 17 18 19 20 21 22 23 24 25 26 27 28 29 30 31 32 33
000
FTUS45 KPUB 232330
TAFPUB
TAF
KPUB 232330Z 2400/2424 29018G28KT P6SM FEW100 SCT200
     FM240100 35014G24KT P6SM SCT100 SCT200
     FM240500 03008KT P6SM SCT050 BKN100
     FM241400 08008KT P6SM SCT100 BKN150
     FM242000 13010KT P6SM SCT050 BKN100=

USA.gov is the U.S. government's official web portal to all federal, state and local government web resources and services.